sensor_id;sensor_type;location;lat;lon;timestamp;pressure;altitude;pressure_sealevel;temperature;humidity
73518;BME280;61766;60.318;25.044;2023-05-20T00:01:55;103054.58;;;11.72;35.03
73518;BME280;61766;60.318;25.044;2023-05-20T00:04:20;103056.96;;;11.41;35.44
73518;BME280;61766;60.318;25.044;2023-05-20T00:06:45;103057.50;;;11.72;35.38
73518;BME280;61766;60.318;25.044;2023-05-20T00:09:10;103062.38;;;11.64;35.35
73518;BME280;61766;60.318;25.044;2023-05-20T00:11:35;103062.56;;;11.87;35.34
73518;BME280;61766;60.318;25.044;2023-05-20T00:14:01;103064.18;;;11.84;35.17
73518;BME280;61766;60.318;25.044;2023-05-20T00:16:26;103067.39;;;11.39;35.01
73518;BME280;61766;60.318;25.044;2023-05-20T00:18:51;103069.29;;;11.63;35.14
73518;BME280;61766;60.318;25.044;2023-05-20T00:21:16;103070.43;;;11.34;35.31
73518;BME280;61766;60.318;25.044;2023-05-20T00:23:41;103072.94;;;11.28;35.19
73518;BME280;61766;60.318;25.044;2023-05-20T00:26:06;103078.87;;;11.48;35.62
73518;BME280;61766;60.318;25.044;2023-05-20T00:28:32;103081.05;;;11.67;35.23
73518;BME280;61766;60.318;25.044;2023-05-20T00:30:57;103081.20;;;11.14;35.36
73518;BME280;61766;60.318;25.044;2023-05-20T00:33:22;103083.84;;;11.30;35.08
73518;BME280;61766;60.318;25.044;2023-05-20T00:35:47;103084.06;;;11.08;35.35
73518;BME280;61766;60.318;25.044;2023-05-20T00:38:13;103082.70;;;11.22;35.39
73518;BME280;61766;60.318;25.044;2023-05-20T00:40:38;103081.69;;;11.44;35.07
73518;BME280;61766;60.318;25.044;2023-05-20T00:43:03;103084.80;;;11.35;35.35
73518;BME280;61766;60.318;25.044;2023-05-20T00:45:28;103082.95;;;11.38;35.18
73518;BME280;61766;60.318;25.044;2023-05-20T00:47:53;103082.58;;;11.24;35.35
73518;BME280;61766;60.318;25.044;2023-05-20T00:50:18;103085.36;;;11.08;35.12
73518;BME280;61766;60.318;25.044;2023-05-20T00:52:44;103084.14;;;11.05;35.62
73518;BME280;61766;60.318;25.044;2023-05-20T00:55:09;103081.55;;;11.03;35.40
73518;BME280;61766;60.318;25.044;2023-05-20T00:57:34;103082.38;;;11.05;35.34
73518;BME280;61766;60.318;25.044;2023-05-20T00:59:59;103082.53;;;10.85;35.17
73518;BME280;61766;60.318;25.044;2023-05-20T01:02:24;103085.09;;;11.11;35.03
73518;BME280;61766;60.318;25.044;2023-05-20T01:04:49;103082.74;;;11.10;34.87
73518;BME280;61766;60.318;25.044;2023-05-20T01:07:15;103081.48;;;11.10;34.92
73518;BME280;61766;60.318;25.044;2023-05-20T01:09:39;103083.82;;;11.09;34.67
73518;BME280;61766;60.318;25.044;2023-05-20T01:12:10;103082.21;;;11.28;35.16
73518;BME280;61766;60.318;25.044;2023-05-20T01:14:34;103084.30;;;10.94;35.36
73518;BME280;61766;60.318;25.044;2023-05-20T01:16:55;103089.12;;;10.87;35.41
73518;BME280;61766;60.318;25.044;2023-05-20T01:19:26;103091.22;;;10.71;35.71
73518;BME280;61766;60.318;25.044;2023-05-20T01:21:45;103092.19;;;10.87;36.11
73518;BME280;61766;60.318;25.044;2023-05-20T01:24:10;103093.45;;;10.55;36.46
73518;BME280;61766;60.318;25.044;2023-05-20T01:26:35;103091.84;;;10.62;36.10
73518;BME280;61766;60.318;25.044;2023-05-20T01:29:00;103091.02;;;10.95;36.07
73518;BME280;61766;60.318;25.044;2023-05-20T01:31:26;103088.34;;;10.79;35.99
73518;BME280;61766;60.318;25.044;2023-05-20T01:33:55;103089.41;;;10.87;35.83
73518;BME280;61766;60.318;25.044;2023-05-20T01:36:16;103092.79;;;10.98;35.94
73518;BME280;61766;60.318;25.044;2023-05-20T01:38:41;103097.91;;;10.85;36.28
73518;BME280;61766;60.318;25.044;2023-05-20T01:41:06;103101.97;;;11.16;36.04
73518;BME280;61766;60.318;25.044;2023-05-20T01:43:31;103105.70;;;11.20;36.23
73518;BME280;61766;60.318;25.044;2023-05-20T01:45:56;103104.37;;;11.22;36.02
73518;BME280;61766;60.318;25.044;2023-05-20T01:48:21;103104.25;;;10.98;36.26
73518;BME280;61766;60.318;25.044;2023-05-20T01:50:46;103108.13;;;10.91;36.44
73518;BME280;61766;60.318;25.044;2023-05-20T01:53:12;103108.34;;;10.58;36.41
73518;BME280;61766;60.318;25.044;2023-05-20T01:55:36;103108.17;;;10.79;36.41
73518;BME280;61766;60.318;25.044;2023-05-20T01:58:02;103110.36;;;10.76;36.44
73518;BME280;61766;60.318;25.044;2023-05-20T02:00:27;103116.09;;;10.73;36.37
73518;BME280;61766;60.318;25.044;2023-05-20T02:02:52;103115.73;;;10.74;36.44
73518;BME280;61766;60.318;25.044;2023-05-20T02:05:17;103117.21;;;10.74;36.18
73518;BME280;61766;60.318;25.044;2023-05-20T02:07:43;103116.14;;;10.81;36.15
73518;BME280;61766;60.318;25.044;2023-05-20T02:10:08;103113.67;;;10.84;36.30
73518;BME280;61766;60.318;25.044;2023-05-20T02:12:33;103111.45;;;10.58;36.30
73518;BME280;61766;60.318;25.044;2023-05-20T02:14:58;103109.73;;;10.91;36.03
73518;BME280;61766;60.318;25.044;2023-05-20T02:17:23;103114.14;;;10.88;36.38
73518;BME280;61766;60.318;25.044;2023-05-20T02:19:48;103119.68;;;10.60;36.71
73518;BME280;61766;60.318;25.044;2023-05-20T02:22:13;103122.43;;;10.61;36.70
73518;BME280;61766;60.318;25.044;2023-05-20T02:24:39;103123.19;;;10.99;36.07
73518;BME280;61766;60.318;25.044;2023-05-20T02:27:04;103126.33;;;10.78;36.22
73518;BME280;61766;60.318;25.044;2023-05-20T02:29:29;103123.86;;;10.58;36.33
73518;BME280;61766;60.318;25.044;2023-05-20T02:31:54;103126.78;;;11.16;36.01
73518;BME280;61766;60.318;25.044;2023-05-20T02:34:20;103126.27;;;10.92;36.22
73518;BME280;61766;60.318;25.044;2023-05-20T02:36:44;103123.35;;;10.92;36.36
73518;BME280;61766;60.318;25.044;2023-05-20T02:39:09;103123.07;;;10.83;36.59
73518;BME280;61766;60.318;25.044;2023-05-20T02:41:34;103124.72;;;10.40;37.17
73518;BME280;61766;60.318;25.044;2023-05-20T02:43:59;103121.10;;;10.43;36.93
73518;BME280;61766;60.318;25.044;2023-05-20T02:46:25;103125.27;;;10.46;37.12
73518;BME280;61766;60.318;25.044;2023-05-20T02:48:50;103126.77;;;10.13;37.64
73518;BME280;61766;60.318;25.044;2023-05-20T02:51:15;103128.62;;;10.21;38.64
73518;BME280;61766;60.318;25.044;2023-05-20T02:53:40;103127.25;;;10.42;38.41
73518;BME280;61766;60.318;25.044;2023-05-20T02:56:06;103128.33;;;10.79;38.28
73518;BME280;61766;60.318;25.044;2023-05-20T02:58:30;103131.56;;;10.52;38.40
73518;BME280;61766;60.318;25.044;2023-05-20T03:00:55;103135.32;;;11.00;38.83
73518;BME280;61766;60.318;25.044;2023-05-20T03:03:20;103131.59;;;10.63;38.87
73518;BME280;61766;60.318;25.044;2023-05-20T03:05:45;103134.83;;;10.99;38.59
73518;BME280;61766;60.318;25.044;2023-05-20T03:08:11;103137.81;;;10.92;38.15
73518;BME280;61766;60.318;25.044;2023-05-20T03:10:36;103142.98;;;10.77;37.99
73518;BME280;61766;60.318;25.044;2023-05-20T03:13:01;103146.06;;;11.13;37.86
73518;BME280;61766;60.318;25.044;2023-05-20T03:15:26;103148.95;;;11.16;37.63
73518;BME280;61766;60.318;25.044;2023-05-20T03:17:51;103152.52;;;11.35;37.37
73518;BME280;61766;60.318;25.044;2023-05-20T03:20:16;103154.75;;;11.08;37.59
73518;BME280;61766;60.318;25.044;2023-05-20T03:22:41;103155.80;;;11.06;38.19
73518;BME280;61766;60.318;25.044;2023-05-20T03:25:07;103151.20;;;11.10;37.38
73518;BME280;61766;60.318;25.044;2023-05-20T03:27:31;103153.53;;;11.34;37.42
73518;BME280;61766;60.318;25.044;2023-05-20T03:29:57;103151.02;;;11.27;36.96
73518;BME280;61766;60.318;25.044;2023-05-20T03:32:22;103152.83;;;11.68;36.65
73518;BME280;61766;60.318;25.044;2023-05-20T03:34:47;103152.64;;;11.09;37.49
73518;BME280;61766;60.318;25.044;2023-05-20T03:37:14;103150.12;;;11.05;37.86
73518;BME280;61766;60.318;25.044;2023-05-20T03:39:38;103155.06;;;11.27;37.94
73518;BME280;61766;60.318;25.044;2023-05-20T03:42:04;103157.93;;;11.36;37.75
73518;BME280;61766;60.318;25.044;2023-05-20T03:44:28;103159.78;;;11.36;38.29
73518;BME280;61766;60.318;25.044;2023-05-20T03:46:53;103158.82;;;11.34;38.42
73518;BME280;61766;60.318;25.044;2023-05-20T03:49:18;103156.57;;;11.61;38.53
73518;BME280;61766;60.318;25.044;2023-05-20T03:51:43;103155.66;;;11.96;37.73
73518;BME280;61766;60.318;25.044;2023-05-20T03:54:08;103156.48;;;11.52;35.88
73518;BME280;61766;60.318;25.044;2023-05-20T03:56:33;103156.43;;;11.84;36.20
73518;BME280;61766;60.318;25.044;2023-05-20T03:58:59;103156.71;;;12.23;35.27
73518;BME280;61766;60.318;25.044;2023-05-20T04:01:24;103156.24;;;12.34;33.63
73518;BME280;61766;60.318;25.044;2023-05-20T04:03:49;103157.21;;;12.31;33.74
73518;BME280;61766;60.318;25.044;2023-05-20T04:06:14;103150.67;;;12.41;32.59
73518;BME280;61766;60.318;25.044;2023-05-20T04:08:39;103152.51;;;12.89;31.87
73518;BME280;61766;60.318;25.044;2023-05-20T04:11:04;103150.23;;;12.56;31.17
73518;BME280;61766;60.318;25.044;2023-05-20T04:13:29;103149.21;;;13.45;30.18
73518;BME280;61766;60.318;25.044;2023-05-20T04:15:54;103147.44;;;13.68;29.97
73518;BME280;61766;60.318;25.044;2023-05-20T04:18:19;103146.32;;;13.40;29.77
73518;BME280;61766;60.318;25.044;2023-05-20T04:20:44;103148.47;;;13.59;29.29
73518;BME280;61766;60.318;25.044;2023-05-20T04:23:09;103147.88;;;13.67;29.33
73518;BME280;61766;60.318;25.044;2023-05-20T04:25:34;103147.59;;;13.94;29.05
73518;BME280;61766;60.318;25.044;2023-05-20T04:27:59;103148.05;;;14.15;28.84
73518;BME280;61766;60.318;25.044;2023-05-20T04:30:24;103151.65;;;14.49;28.42
73518;BME280;61766;60.318;25.044;2023-05-20T04:32:49;103153.04;;;14.39;27.37
73518;BME280;61766;60.318;25.044;2023-05-20T04:35:14;103152.93;;;14.57;28.14
73518;BME280;61766;60.318;25.044;2023-05-20T04:37:39;103154.57;;;14.97;27.62
73518;BME280;61766;60.318;25.044;2023-05-20T04:40:06;103156.33;;;15.12;26.33
73518;BME280;61766;60.318;25.044;2023-05-20T04:42:31;103154.60;;;15.14;27.81
73518;BME280;61766;60.318;25.044;2023-05-20T04:44:57;103151.76;;;15.35;27.53
73518;BME280;61766;60.318;25.044;2023-05-20T04:47:23;103151.44;;;15.17;28.37
73518;BME280;61766;60.318;25.044;2023-05-20T04:49:49;103153.75;;;15.43;27.84
73518;BME280;61766;60.318;25.044;2023-05-20T04:52:14;103149.13;;;15.63;27.26
73518;BME280;61766;60.318;25.044;2023-05-20T04:54:40;103151.93;;;15.75;27.64
73518;BME280;61766;60.318;25.044;2023-05-20T04:57:06;103153.95;;;15.78;26.80
73518;BME280;61766;60.318;25.044;2023-05-20T04:59:32;103153.60;;;16.01;25.65
73518;BME280;61766;60.318;25.044;2023-05-20T05:01:58;103152.81;;;16.35;25.86
73518;BME280;61766;60.318;25.044;2023-05-20T05:04:24;103153.11;;;16.28;26.47
73518;BME280;61766;60.318;25.044;2023-05-20T05:06:49;103153.31;;;16.83;25.65
73518;BME280;61766;60.318;25.044;2023-05-20T05:09:15;103152.37;;;16.55;25.47
73518;BME280;61766;60.318;25.044;2023-05-20T05:11:41;103150.82;;;16.67;25.92
73518;BME280;61766;60.318;25.044;2023-05-20T05:14:07;103150.28;;;16.88;24.89
73518;BME280;61766;60.318;25.044;2023-05-20T05:16:33;103152.35;;;17.12;25.82
73518;BME280;61766;60.318;25.044;2023-05-20T05:18:58;103152.90;;;17.01;24.34
73518;BME280;61766;60.318;25.044;2023-05-20T05:21:24;103153.20;;;17.03;24.35
73518;BME280;61766;60.318;25.044;2023-05-20T05:23:50;103151.54;;;17.24;26.13
73518;BME280;61766;60.318;25.044;2023-05-20T05:26:16;103150.27;;;17.49;24.36
73518;BME280;61766;60.318;25.044;2023-05-20T05:28:42;103149.32;;;17.61;23.74
73518;BME280;61766;60.318;25.044;2023-05-20T05:31:07;103149.15;;;17.87;23.98
73518;BME280;61766;60.318;25.044;2023-05-20T05:33:33;103151.91;;;17.70;24.84
73518;BME280;61766;60.318;25.044;2023-05-20T05:35:59;103151.55;;;18.38;23.99
73518;BME280;61766;60.318;25.044;2023-05-20T05:38:25;103146.73;;;18.29;23.70
73518;BME280;61766;60.318;25.044;2023-05-20T05:40:51;103145.97;;;19.31;22.72
73518;BME280;61766;60.318;25.044;2023-05-20T05:43:16;103146.60;;;18.59;22.75
73518;BME280;61766;60.318;25.044;2023-05-20T05:45:42;103148.60;;;18.82;22.84
73518;BME280;61766;60.318;25.044;2023-05-20T05:48:08;103148.09;;;19.13;23.14
73518;BME280;61766;60.318;25.044;2023-05-20T05:50:34;103145.60;;;19.02;23.01
73518;BME280;61766;60.318;25.044;2023-05-20T05:52:59;103142.60;;;19.23;22.23
73518;BME280;61766;60.318;25.044;2023-05-20T05:55:25;103138.64;;;19.65;22.80
73518;BME280;61766;60.318;25.044;2023-05-20T05:57:51;103134.10;;;19.74;21.88
73518;BME280;61766;60.318;25.044;2023-05-20T06:00:17;103131.51;;;19.88;20.63
73518;BME280;61766;60.318;25.044;2023-05-20T06:02:42;103129.37;;;19.90;21.16
73518;BME280;61766;60.318;25.044;2023-05-20T06:05:09;103129.00;;;19.71;22.07
73518;BME280;61766;60.318;25.044;2023-05-20T06:07:34;103130.49;;;20.17;20.56
73518;BME280;61766;60.318;25.044;2023-05-20T06:10:00;103128.36;;;20.24;20.70
73518;BME280;61766;60.318;25.044;2023-05-20T06:12:25;103130.80;;;20.18;19.79
73518;BME280;61766;60.318;25.044;2023-05-20T06:14:51;103132.30;;;20.17;20.93
73518;BME280;61766;60.318;25.044;2023-05-20T06:17:17;103131.57;;;20.10;19.53
73518;BME280;61766;60.318;25.044;2023-05-20T06:19:43;103129.62;;;20.46;19.18
73518;BME280;61766;60.318;25.044;2023-05-20T06:22:08;103130.93;;;20.38;20.02
73518;BME280;61766;60.318;25.044;2023-05-20T06:24:34;103129.85;;;20.10;22.25
73518;BME280;61766;60.318;25.044;2023-05-20T06:27:00;103130.10;;;20.61;21.30
73518;BME280;61766;60.318;25.044;2023-05-20T06:29:27;103130.75;;;20.68;20.26
73518;BME280;61766;60.318;25.044;2023-05-20T06:31:51;103128.30;;;21.20;19.18
73518;BME280;61766;60.318;25.044;2023-05-20T06:34:17;103128.21;;;21.19;19.79
73518;BME280;61766;60.318;25.044;2023-05-20T06:36:43;103123.19;;;21.74;18.61
73518;BME280;61766;60.318;25.044;2023-05-20T06:39:08;103123.70;;;21.24;19.42
73518;BME280;61766;60.318;25.044;2023-05-20T06:41:34;103122.03;;;21.27;18.47
73518;BME280;61766;60.318;25.044;2023-05-20T06:44:00;103127.02;;;21.47;18.69
73518;BME280;61766;60.318;25.044;2023-05-20T06:46:26;103125.34;;;21.57;19.73
73518;BME280;61766;60.318;25.044;2023-05-20T06:48:51;103126.07;;;21.35;19.39
73518;BME280;61766;60.318;25.044;2023-05-20T06:51:17;103123.88;;;21.72;18.97
73518;BME280;61766;60.318;25.044;2023-05-20T06:53:43;103124.75;;;21.39;18.50
73518;BME280;61766;60.318;25.044;2023-05-20T06:56:09;103126.28;;;22.15;18.52
73518;BME280;61766;60.318;25.044;2023-05-20T06:58:34;103127.13;;;22.44;18.30
73518;BME280;61766;60.318;25.044;2023-05-20T07:01:00;103131.37;;;22.74;19.28
73518;BME280;61766;60.318;25.044;2023-05-20T07:03:26;103134.26;;;22.95;19.13
73518;BME280;61766;60.318;25.044;2023-05-20T07:05:52;103137.05;;;23.40;18.89
73518;BME280;61766;60.318;25.044;2023-05-20T07:08:17;103135.00;;;23.07;17.26
73518;BME280;61766;60.318;25.044;2023-05-20T07:10:43;103135.89;;;23.05;18.60
73518;BME280;61766;60.318;25.044;2023-05-20T07:13:09;103133.39;;;22.95;17.07
73518;BME280;61766;60.318;25.044;2023-05-20T07:15:34;103132.90;;;22.42;18.19
73518;BME280;61766;60.318;25.044;2023-05-20T07:18:00;103131.59;;;21.61;18.55
73518;BME280;61766;60.318;25.044;2023-05-20T07:20:26;103124.80;;;22.27;17.81
73518;BME280;61766;60.318;25.044;2023-05-20T07:22:51;103132.33;;;22.78;18.01
73518;BME280;61766;60.318;25.044;2023-05-20T07:25:17;103134.53;;;23.24;17.35
73518;BME280;61766;60.318;25.044;2023-05-20T07:27:43;103134.79;;;23.67;17.03
73518;BME280;61766;60.318;25.044;2023-05-20T07:30:09;103131.92;;;23.08;17.35
73518;BME280;61766;60.318;25.044;2023-05-20T07:32:34;103133.92;;;23.94;17.61
73518;BME280;61766;60.318;25.044;2023-05-20T07:35:00;103133.48;;;23.52;17.14
73518;BME280;61766;60.318;25.044;2023-05-20T07:37:25;103133.46;;;22.69;16.39
73518;BME280;61766;60.318;25.044;2023-05-20T07:39:51;103131.58;;;22.67;17.30
73518;BME280;61766;60.318;25.044;2023-05-20T07:42:17;103133.20;;;22.54;17.49
73518;BME280;61766;60.318;25.044;2023-05-20T07:44:43;103137.15;;;21.85;17.81
73518;BME280;61766;60.318;25.044;2023-05-20T07:47:08;103138.88;;;21.09;17.91
73518;BME280;61766;60.318;25.044;2023-05-20T07:49:34;103137.60;;;20.89;18.60
73518;BME280;61766;60.318;25.044;2023-05-20T07:52:00;103135.83;;;22.28;18.20
73518;BME280;61766;60.318;25.044;2023-05-20T07:54:25;103135.41;;;22.10;17.88
73518;BME280;61766;60.318;25.044;2023-05-20T07:56:51;103134.47;;;23.12;19.26
73518;BME280;61766;60.318;25.044;2023-05-20T07:59:17;103129.00;;;23.16;16.71
73518;BME280;61766;60.318;25.044;2023-05-20T08:01:43;103134.81;;;22.94;16.64
73518;BME280;61766;60.318;25.044;2023-05-20T08:04:08;103131.45;;;21.90;17.11
73518;BME280;61766;60.318;25.044;2023-05-20T08:06:34;103128.97;;;22.39;17.49
73518;BME280;61766;60.318;25.044;2023-05-20T08:09:00;103125.08;;;22.12;17.16
73518;BME280;61766;60.318;25.044;2023-05-20T08:11:25;103114.02;;;22.24;17.10
73518;BME280;61766;60.318;25.044;2023-05-20T08:13:51;103117.85;;;23.27;17.49
73518;BME280;61766;60.318;25.044;2023-05-20T08:16:17;103116.89;;;22.89;16.99
73518;BME280;61766;60.318;25.044;2023-05-20T08:18:42;103116.18;;;24.01;17.65
73518;BME280;61766;60.318;25.044;2023-05-20T08:21:08;103107.96;;;24.29;15.46
73518;BME280;61766;60.318;25.044;2023-05-20T08:23:34;103117.54;;;23.52;16.76
73518;BME280;61766;60.318;25.044;2023-05-20T08:25:59;103118.07;;;24.14;15.78
73518;BME280;61766;60.318;25.044;2023-05-20T08:28:25;103113.79;;;24.15;16.55
73518;BME280;61766;60.318;25.044;2023-05-20T08:30:51;103115.99;;;24.22;16.84
73518;BME280;61766;60.318;25.044;2023-05-20T08:33:16;103114.38;;;24.91;17.15
73518;BME280;61766;60.318;25.044;2023-05-20T08:35:42;103117.88;;;25.46;14.94
73518;BME280;61766;60.318;25.044;2023-05-20T08:38:08;103116.00;;;24.24;15.03
73518;BME280;61766;60.318;25.044;2023-05-20T08:40:34;103124.88;;;23.55;16.14
73518;BME280;61766;60.318;25.044;2023-05-20T08:42:59;103120.43;;;24.60;15.89
73518;BME280;61766;60.318;25.044;2023-05-20T08:45:25;103118.06;;;24.76;16.74
73518;BME280;61766;60.318;25.044;2023-05-20T08:47:50;103115.18;;;25.30;17.03
73518;BME280;61766;60.318;25.044;2023-05-20T08:50:16;103106.43;;;26.01;16.92
73518;BME280;61766;60.318;25.044;2023-05-20T08:52:43;103100.46;;;26.50;15.07
73518;BME280;61766;60.318;25.044;2023-05-20T08:55:10;103100.41;;;26.66;13.65
73518;BME280;61766;60.318;25.044;2023-05-20T08:57:33;103104.90;;;25.74;14.62
73518;BME280;61766;60.318;25.044;2023-05-20T08:59:59;103104.83;;;25.83;14.16
73518;BME280;61766;60.318;25.044;2023-05-20T09:02:24;103102.98;;;25.69;15.50
73518;BME280;61766;60.318;25.044;2023-05-20T09:04:50;103098.88;;;26.40;14.61
73518;BME280;61766;60.318;25.044;2023-05-20T09:07:26;103103.34;;;25.93;13.83
73518;BME280;61766;60.318;25.044;2023-05-20T09:09:41;103103.71;;;25.30;15.13
73518;BME280;61766;60.318;25.044;2023-05-20T09:12:07;103106.49;;;25.63;15.26
73518;BME280;61766;60.318;25.044;2023-05-20T09:14:32;103100.13;;;24.83;16.05
73518;BME280;61766;60.318;25.044;2023-05-20T09:16:58;103096.59;;;24.82;14.56
73518;BME280;61766;60.318;25.044;2023-05-20T09:19:24;103090.13;;;25.81;14.09
73518;BME280;61766;60.318;25.044;2023-05-20T09:21:52;103091.24;;;25.60;15.34
73518;BME280;61766;60.318;25.044;2023-05-20T09:24:19;103087.91;;;25.76;14.07
73518;BME280;61766;60.318;25.044;2023-05-20T09:26:41;103090.12;;;24.31;15.84
73518;BME280;61766;60.318;25.044;2023-05-20T09:29:06;103095.65;;;22.47;16.63
73518;BME280;61766;60.318;25.044;2023-05-20T09:31:32;103086.90;;;24.37;15.88
73518;BME280;61766;60.318;25.044;2023-05-20T09:33:59;103098.25;;;23.23;16.65
73518;BME280;61766;60.318;25.044;2023-05-20T09:36:25;103097.83;;;23.30;15.96
73518;BME280;61766;60.318;25.044;2023-05-20T09:38:51;103097.69;;;22.92;15.93
73518;BME280;61766;60.318;25.044;2023-05-20T09:41:16;103095.23;;;23.15;16.41
73518;BME280;61766;60.318;25.044;2023-05-20T09:43:40;103092.33;;;23.09;16.58
73518;BME280;61766;60.318;25.044;2023-05-20T09:46:06;103100.26;;;22.82;16.55
73518;BME280;61766;60.318;25.044;2023-05-20T09:48:32;103092.25;;;21.91;16.51
73518;BME280;61766;60.318;25.044;2023-05-20T09:51:00;103087.92;;;22.13;16.15
73518;BME280;61766;60.318;25.044;2023-05-20T09:53:25;103088.03;;;23.33;16.30
73518;BME280;61766;60.318;25.044;2023-05-20T09:55:50;103086.86;;;24.35;15.84
73518;BME280;61766;60.318;25.044;2023-05-20T09:58:14;103080.04;;;24.99;15.37
73518;BME280;61766;60.318;25.044;2023-05-20T10:00:41;103082.01;;;24.82;15.35
73518;BME280;61766;60.318;25.044;2023-05-20T10:03:06;103081.14;;;24.71;15.80
73518;BME280;61766;60.318;25.044;2023-05-20T10:05:35;103080.13;;;24.65;14.36
73518;BME280;61766;60.318;25.044;2023-05-20T10:08:13;103079.34;;;23.74;15.56
73518;BME280;61766;60.318;25.044;2023-05-20T10:10:31;103079.74;;;24.71;14.94
73518;BME280;61766;60.318;25.044;2023-05-20T10:12:57;103077.63;;;24.40;15.66
73518;BME280;61766;60.318;25.044;2023-05-20T10:15:19;103078.33;;;24.34;15.76
73518;BME280;61766;60.318;25.044;2023-05-20T10:17:45;103081.74;;;23.77;16.09
73518;BME280;61766;60.318;25.044;2023-05-20T10:20:06;103075.66;;;24.78;16.14
73518;BME280;61766;60.318;25.044;2023-05-20T10:22:31;103076.14;;;24.30;15.32
73518;BME280;61766;60.318;25.044;2023-05-20T10:24:58;103079.01;;;23.74;15.76
73518;BME280;61766;60.318;25.044;2023-05-20T10:27:22;103072.08;;;23.80;16.14
73518;BME280;61766;60.318;25.044;2023-05-20T10:29:50;103071.59;;;23.95;16.25
73518;BME280;61766;60.318;25.044;2023-05-20T10:32:22;103076.98;;;23.41;17.48
73518;BME280;61766;60.318;25.044;2023-05-20T10:34:46;103077.20;;;24.18;16.52
73518;BME280;61766;60.318;25.044;2023-05-20T10:37:05;103075.80;;;23.52;18.25
73518;BME280;61766;60.318;25.044;2023-05-20T10:39:32;103069.80;;;24.22;16.19
73518;BME280;61766;60.318;25.044;2023-05-20T10:42:05;103068.03;;;23.29;16.86
73518;BME280;61766;60.318;25.044;2023-05-20T10:44:22;103069.88;;;23.02;17.64
73518;BME280;61766;60.318;25.044;2023-05-20T10:49:18;103062.17;;;22.86;17.71
73518;BME280;61766;60.318;25.044;2023-05-20T10:51:41;103065.19;;;22.46;17.81
73518;BME280;61766;60.318;25.044;2023-05-20T10:54:08;103061.91;;;23.24;17.85
73518;BME280;61766;60.318;25.044;2023-05-20T10:56:31;103063.41;;;22.75;18.38
73518;BME280;61766;60.318;25.044;2023-05-20T10:58:56;103061.52;;;22.74;18.47
73518;BME280;61766;60.318;25.044;2023-05-20T11:01:24;103057.64;;;23.43;17.44
73518;BME280;61766;60.318;25.044;2023-05-20T11:03:48;103055.91;;;23.24;17.74
73518;BME280;61766;60.318;25.044;2023-05-20T11:06:14;103053.01;;;23.03;17.47
73518;BME280;61766;60.318;25.044;2023-05-20T11:08:39;103049.67;;;22.83;18.37
73518;BME280;61766;60.318;25.044;2023-05-20T11:11:07;103054.18;;;23.92;17.50
73518;BME280;61766;60.318;25.044;2023-05-20T11:13:31;103051.06;;;23.00;17.90
73518;BME280;61766;60.318;25.044;2023-05-20T11:15:56;103046.39;;;22.99;18.28
73518;BME280;61766;60.318;25.044;2023-05-20T11:18:22;103039.86;;;23.66;17.65
73518;BME280;61766;60.318;25.044;2023-05-20T11:20:48;103037.04;;;23.90;17.04
73518;BME280;61766;60.318;25.044;2023-05-20T11:23:14;103033.89;;;24.53;16.76
73518;BME280;61766;60.318;25.044;2023-05-20T11:25:39;103032.80;;;24.59;16.27
73518;BME280;61766;60.318;25.044;2023-05-20T11:28:08;103031.93;;;23.62;16.84
73518;BME280;61766;60.318;25.044;2023-05-20T11:30:30;103031.84;;;23.51;16.89
73518;BME280;61766;60.318;25.044;2023-05-20T11:32:57;103027.78;;;24.90;16.90
73518;BME280;61766;60.318;25.044;2023-05-20T11:35:22;103029.70;;;24.63;16.13
73518;BME280;61766;60.318;25.044;2023-05-20T11:37:54;103031.53;;;24.12;16.26
73518;BME280;61766;60.318;25.044;2023-05-20T11:40:13;103023.22;;;23.69;16.50
73518;BME280;61766;60.318;25.044;2023-05-20T11:42:43;103018.91;;;24.03;16.97
73518;BME280;61766;60.318;25.044;2023-05-20T11:45:05;103018.68;;;24.17;16.14
73518;BME280;61766;60.318;25.044;2023-05-20T11:47:30;103018.80;;;24.60;16.44
73518;BME280;61766;60.318;25.044;2023-05-20T11:49:55;103018.14;;;23.75;16.40
73518;BME280;61766;60.318;25.044;2023-05-20T11:52:21;103013.12;;;23.76;16.83
73518;BME280;61766;60.318;25.044;2023-05-20T11:54:51;103009.70;;;24.67;16.27
73518;BME280;61766;60.318;25.044;2023-05-20T11:57:13;103015.46;;;23.18;17.02
73518;BME280;61766;60.318;25.044;2023-05-20T11:59:38;103012.67;;;22.68;17.21
73518;BME280;61766;60.318;25.044;2023-05-20T12:02:04;103008.57;;;22.56;17.35
73518;BME280;61766;60.318;25.044;2023-05-20T12:04:29;103003.69;;;21.32;17.71
73518;BME280;61766;60.318;25.044;2023-05-20T12:06:55;102996.37;;;22.36;17.49
73518;BME280;61766;60.318;25.044;2023-05-20T12:09:21;102999.60;;;23.47;17.06
73518;BME280;61766;60.318;25.044;2023-05-20T12:11:47;102992.19;;;23.62;17.00
73518;BME280;61766;60.318;25.044;2023-05-20T12:14:12;102986.06;;;24.21;16.44
73518;BME280;61766;60.318;25.044;2023-05-20T12:16:38;102985.48;;;24.64;16.64
73518;BME280;61766;60.318;25.044;2023-05-20T12:19:04;102980.64;;;24.24;16.56
73518;BME280;61766;60.318;25.044;2023-05-20T12:21:30;102979.25;;;24.56;15.91
73518;BME280;61766;60.318;25.044;2023-05-20T12:23:55;102978.41;;;24.12;16.46
73518;BME280;61766;60.318;25.044;2023-05-20T12:26:21;102985.61;;;23.56;16.82
73518;BME280;61766;60.318;25.044;2023-05-20T12:28:46;102979.99;;;22.62;17.57
73518;BME280;61766;60.318;25.044;2023-05-20T12:31:12;102982.28;;;23.21;17.76
73518;BME280;61766;60.318;25.044;2023-05-20T12:33:38;102973.90;;;23.65;17.32